sensor_id;sensor_type;location;lat;lon;timestamp;pressure;altitude;pressure_sealevel;temperature;humidity
3524;BME280;1776;53.330;11.498;2023-02-12T00:01:35;20512.34;;;-147.39;82.02
3524;BME280;1776;53.330;11.498;2023-02-12T00:04:01;20583.44;;;-147.39;81.90
3524;BME280;1776;53.330;11.498;2023-02-12T00:06:26;20508.28;;;-147.39;81.96
3524;BME280;1776;53.330;11.498;2023-02-12T00:08:53;20516.41;;;-147.39;81.78
3524;BME280;1776;53.330;11.498;2023-02-12T00:11:21;20569.22;;;-147.39;81.84
3524;BME280;1776;53.330;11.498;2023-02-12T00:13:47;20565.16;;;-147.39;81.30
3524;BME280;1776;53.330;11.498;2023-02-12T00:16:16;20563.13;;;-147.39;81.18
3524;BME280;1776;53.330;11.498;2023-02-12T00:18:42;20615.94;;;-147.39;81.13
3524;BME280;1776;53.330;11.498;2023-02-12T00:21:07;20567.19;;;-147.39;81.24
3524;BME280;1776;53.330;11.498;2023-02-12T00:23:34;20573.28;;;-147.39;81.05
3524;BME280;1776;53.330;11.498;2023-02-12T00:25:59;20583.44;;;-147.39;81.51
3524;BME280;1776;53.330;11.498;2023-02-12T00:28:25;20595.63;;;-147.39;81.19
3524;BME280;1776;53.330;11.498;2023-02-12T00:30:51;20575.31;;;-147.39;81.55
3524;BME280;1776;53.330;11.498;2023-02-12T00:33:16;20581.41;;;-147.39;81.29
3524;BME280;1776;53.330;11.498;2023-02-12T00:35:41;20591.56;;;-147.39;81.60
3524;BME280;1776;53.330;11.498;2023-02-12T00:38:07;20520.47;;;-147.39;81.86
3524;BME280;1776;53.330;11.498;2023-02-12T00:40:32;20514.38;;;-147.39;82.21
3524;BME280;1776;53.330;11.498;2023-02-12T00:42:57;20498.13;;;-147.39;82.38
3524;BME280;1776;53.330;11.498;2023-02-12T00:45:22;20479.84;;;-147.39;82.33
3524;BME280;1776;53.330;11.498;2023-02-12T00:47:48;20483.91;;;-147.39;82.45
3524;BME280;1776;53.330;11.498;2023-02-12T00:50:13;20427.03;;;-147.39;82.60
3524;BME280;1776;53.330;11.498;2023-02-12T00:52:38;20479.84;;;-147.39;82.91
3524;BME280;1776;53.330;11.498;2023-02-12T00:55:04;20410.78;;;-147.39;82.86
3524;BME280;1776;53.330;11.498;2023-02-12T00:57:29;20455.47;;;-147.39;82.85
3524;BME280;1776;53.330;11.498;2023-02-12T00:59:54;20420.94;;;-147.39;82.66
3524;BME280;1776;53.330;11.498;2023-02-12T01:02:20;20473.75;;;-147.39;82.63
3524;BME280;1776;53.330;11.498;2023-02-12T01:04:45;20441.25;;;-147.39;82.56
3524;BME280;1776;53.330;11.498;2023-02-12T01:07:10;20457.50;;;-147.39;83.19
3524;BME280;1776;53.330;11.498;2023-02-12T01:09:36;20429.06;;;-147.39;83.00
3524;BME280;1776;53.330;11.498;2023-02-12T01:12:01;20485.94;;;-147.39;82.90
3524;BME280;1776;53.330;11.498;2023-02-12T01:14:26;20427.03;;;-147.39;83.00
3524;BME280;1776;53.330;11.498;2023-02-12T01:16:52;20469.69;;;-147.39;82.41
3524;BME280;1776;53.330;11.498;2023-02-12T01:19:17;20439.22;;;-147.39;82.62
3524;BME280;1776;53.330;11.498;2023-02-12T01:21:42;20589.53;;;-147.39;82.82
3524;BME280;1776;53.330;11.498;2023-02-12T01:24:08;20552.97;;;-147.39;82.54
3524;BME280;1776;53.330;11.498;2023-02-12T01:26:34;20477.81;;;-147.39;82.43
3524;BME280;1776;53.330;11.498;2023-02-12T01:29:01;20461.56;;;-147.39;82.65
3524;BME280;1776;53.330;11.498;2023-02-12T01:31:30;20471.72;;;-147.39;82.93
3524;BME280;1776;53.330;11.498;2023-02-12T01:33:58;20433.13;;;-147.39;83.11
3524;BME280;1776;53.330;11.498;2023-02-12T01:36:24;20449.38;;;-147.39;82.93
3524;BME280;1776;53.330;11.498;2023-02-12T01:38:50;20471.72;;;-147.39;83.06
3524;BME280;1776;53.330;11.498;2023-02-12T01:41:18;20439.22;;;-147.39;82.94
3524;BME280;1776;53.330;11.498;2023-02-12T01:44:16;20443.28;;;-147.39;82.85
3524;BME280;1776;53.330;11.498;2023-02-12T01:46:43;20422.97;;;-147.39;82.80
3524;BME280;1776;53.330;11.498;2023-02-12T01:49:16;20445.31;;;-147.39;82.75
3524;BME280;1776;53.330;11.498;2023-02-12T01:51:44;20479.84;;;-147.39;82.48
3524;BME280;1776;53.330;11.498;2023-02-12T01:54:12;20457.50;;;-147.39;82.64
3524;BME280;1776;53.330;11.498;2023-02-12T01:56:39;20461.56;;;-147.39;82.75
3524;BME280;1776;53.330;11.498;2023-02-12T01:59:06;20524.53;;;-147.39;82.59
3524;BME280;1776;53.330;11.498;2023-02-12T02:01:32;20743.94;;;-147.39;82.41
3524;BME280;1776;53.330;11.498;2023-02-12T02:04:04;20471.72;;;-147.39;82.66
3524;BME280;1776;53.330;11.498;2023-02-12T02:06:39;20532.66;;;-147.39;81.96
3524;BME280;1776;53.330;11.498;2023-02-12T02:09:06;20500.16;;;-147.39;82.20
3524;BME280;1776;53.330;11.498;2023-02-12T02:11:32;20512.34;;;-147.39;82.23
3524;BME280;1776;53.330;11.498;2023-02-12T02:14:16;20528.59;;;-147.39;82.12
3524;BME280;1776;53.330;11.498;2023-02-12T02:17:15;20518.44;;;-147.39;82.00
3524;BME280;1776;53.330;11.498;2023-02-12T02:22:43;20461.56;;;-147.39;82.41
3524;BME280;1776;53.330;11.498;2023-02-12T02:25:50;20449.38;;;-147.39;82.53
3524;BME280;1776;53.330;11.498;2023-02-12T02:31:31;20463.59;;;-147.39;82.85
3524;BME280;1776;53.330;11.498;2023-02-12T02:34:13;20504.22;;;-147.39;82.79
3524;BME280;1776;53.330;11.498;2023-02-12T02:36:45;20514.38;;;-147.39;83.11
3524;BME280;1776;53.330;11.498;2023-02-12T02:39:19;20465.63;;;-147.39;82.85
3524;BME280;1776;53.330;11.498;2023-02-12T02:41:58;20414.84;;;-147.39;82.88
3524;BME280;1776;53.330;11.498;2023-02-12T02:44:38;20575.31;;;-147.39;83.02
3524;BME280;1776;53.330;11.498;2023-02-12T02:47:10;20400.63;;;-147.39;83.03
3524;BME280;1776;53.330;11.498;2023-02-12T02:49:52;20402.66;;;-147.39;83.22
3524;BME280;1776;53.330;11.498;2023-02-12T02:52:23;20518.44;;;-147.39;83.29
3524;BME280;1776;53.330;11.498;2023-02-12T02:54:53;20108.09;;;-147.39;83.53
3524;BME280;1776;53.330;11.498;2023-02-12T02:57:35;20347.78;;;-147.39;83.75
3524;BME280;1776;53.330;11.498;2023-02-12T03:00:10;20341.69;;;-147.39;83.91
3524;BME280;1776;53.330;11.498;2023-02-12T03:02:39;20364.03;;;-147.39;84.03
3524;BME280;1776;53.330;11.498;2023-02-12T03:07:49;20353.88;;;-147.39;83.95
3524;BME280;1776;53.330;11.498;2023-02-12T03:10:19;20331.53;;;-147.39;84.27
3524;BME280;1776;53.330;11.498;2023-02-12T03:12:58;20343.72;;;-147.39;84.08
3524;BME280;1776;53.330;11.498;2023-02-12T03:15:34;20329.50;;;-147.39;84.09
3524;BME280;1776;53.330;11.498;2023-02-12T03:18:05;20353.88;;;-147.39;84.47
3524;BME280;1776;53.330;11.498;2023-02-12T03:20:40;20299.03;;;-147.39;84.27
3524;BME280;1776;53.330;11.498;2023-02-12T03:23:11;20331.53;;;-147.39;84.24
3524;BME280;1776;53.330;11.498;2023-02-12T03:25:43;20274.66;;;-147.39;84.31
3524;BME280;1776;53.330;11.498;2023-02-12T03:28:20;20313.25;;;-147.39;84.38
3524;BME280;1776;53.330;11.498;2023-02-12T03:33:33;20274.66;;;-147.39;84.64
3524;BME280;1776;53.330;11.498;2023-02-12T03:36:06;20307.16;;;-147.39;84.31
3524;BME280;1776;53.330;11.498;2023-02-12T03:38:44;20299.03;;;-147.39;84.07
3524;BME280;1776;53.330;11.498;2023-02-12T03:41:17;20303.09;;;-147.39;84.23
3524;BME280;1776;53.330;11.498;2023-02-12T03:43:54;20278.72;;;-147.39;84.42
3524;BME280;1776;53.330;11.498;2023-02-12T03:46:37;20266.53;;;-147.39;84.83
3524;BME280;1776;53.330;11.498;2023-02-12T03:51:37;20236.06;;;-147.39;85.00
3524;BME280;1776;53.330;11.498;2023-02-12T03:54:04;20205.59;;;-147.39;85.37
3524;BME280;1776;53.330;11.498;2023-02-12T03:56:58;20197.47;;;-147.39;85.52
3524;BME280;1776;53.330;11.498;2023-02-12T03:59:25;20213.72;;;-147.39;85.90
3524;BME280;1776;53.330;11.498;2023-02-12T04:01:53;20162.94;;;-147.39;86.09
3524;BME280;1776;53.330;11.498;2023-02-12T04:04:19;20134.50;;;-147.39;86.12
3524;BME280;1776;53.330;11.498;2023-02-12T04:06:46;20069.53;;;-147.39;86.28
3524;BME280;1776;53.330;11.498;2023-02-12T04:09:14;20189.34;;;-147.39;86.81
3524;BME280;1776;53.330;11.498;2023-02-12T04:12:05;20095.91;;;-147.39;86.44
3524;BME280;1776;53.330;11.498;2023-02-12T04:14:45;20093.88;;;-147.39;86.49
3524;BME280;1776;53.330;11.498;2023-02-12T04:17:25;20041.09;;;-147.39;86.75
3524;BME280;1776;53.330;11.498;2023-02-12T04:20:16;20032.97;;;-147.39;86.72
3524;BME280;1776;53.330;11.498;2023-02-12T04:22:59;20014.69;;;-147.39;86.91
3524;BME280;1776;53.330;11.498;2023-02-12T04:26:01;20035.00;;;-147.39;86.76
3524;BME280;1776;53.330;11.498;2023-02-12T04:29:07;20018.75;;;-147.39;86.82
3524;BME280;1776;53.330;11.498;2023-02-12T04:34:38;19994.38;;;-147.39;86.79
3524;BME280;1776;53.330;11.498;2023-02-12T04:37:25;20002.50;;;-147.39;86.78
3524;BME280;1776;53.330;11.498;2023-02-12T04:39:55;20059.38;;;-147.39;86.70
3524;BME280;1776;53.330;11.498;2023-02-12T04:42:22;19982.19;;;-147.39;86.78
3524;BME280;1776;53.330;11.498;2023-02-12T04:44:47;19982.19;;;-147.39;86.85
3524;BME280;1776;53.330;11.498;2023-02-12T04:47:15;20043.13;;;-147.39;86.71
3524;BME280;1776;53.330;11.498;2023-02-12T04:49:40;20073.59;;;-147.39;86.57
3524;BME280;1776;53.330;11.498;2023-02-12T04:52:06;20053.28;;;-147.39;86.58
3524;BME280;1776;53.330;11.498;2023-02-12T04:54:32;20049.22;;;-147.39;86.30
3524;BME280;1776;53.330;11.498;2023-02-12T04:56:57;20059.38;;;-147.39;85.96
3524;BME280;1776;53.330;11.498;2023-02-12T04:59:22;20018.75;;;-147.39;86.53
3524;BME280;1776;53.330;11.498;2023-02-12T05:01:48;20022.81;;;-147.39;86.80
3524;BME280;1776;53.330;11.498;2023-02-12T05:04:15;20022.81;;;-147.39;86.59
3524;BME280;1776;53.330;11.498;2023-02-12T05:06:41;20024.84;;;-147.39;86.41
3524;BME280;1776;53.330;11.498;2023-02-12T05:09:10;19994.38;;;-147.39;86.40
3524;BME280;1776;53.330;11.498;2023-02-12T05:11:38;19992.34;;;-147.39;86.30
3524;BME280;1776;53.330;11.498;2023-02-12T05:14:03;20041.09;;;-147.39;86.16
3524;BME280;1776;53.330;11.498;2023-02-12T05:16:28;20110.13;;;-147.39;86.29
3524;BME280;1776;53.330;11.498;2023-02-12T05:18:53;20063.44;;;-147.39;85.97
3524;BME280;1776;53.330;11.498;2023-02-12T05:21:19;20051.25;;;-147.39;85.81
3524;BME280;1776;53.330;11.498;2023-02-12T05:23:44;20097.94;;;-147.39;85.41
3524;BME280;1776;53.330;11.498;2023-02-12T05:26:12;20132.47;;;-147.39;85.54
3524;BME280;1776;53.330;11.498;2023-02-12T05:28:38;20144.66;;;-147.39;85.38
3524;BME280;1776;53.330;11.498;2023-02-12T05:31:06;20187.31;;;-147.39;84.82
3524;BME280;1776;53.330;11.498;2023-02-12T05:33:32;20191.38;;;-147.39;84.89
3524;BME280;1776;53.330;11.498;2023-02-12T05:36:06;20169.03;;;-147.39;84.52
3524;BME280;1776;53.330;11.498;2023-02-12T05:38:32;20207.63;;;-147.39;84.37
3524;BME280;1776;53.330;11.498;2023-02-12T05:41:06;20229.97;;;-147.39;84.39
3524;BME280;1776;53.330;11.498;2023-02-12T05:43:32;20223.88;;;-147.39;84.22
3524;BME280;1776;53.330;11.498;2023-02-12T05:46:02;20203.56;;;-147.39;84.44
3524;BME280;1776;53.330;11.498;2023-02-12T05:48:28;20242.16;;;-147.39;84.25
3524;BME280;1776;53.330;11.498;2023-02-12T05:50:54;20229.97;;;-147.39;84.05
3524;BME280;1776;53.330;11.498;2023-02-12T05:53:19;20238.09;;;-147.39;84.22
3524;BME280;1776;53.330;11.498;2023-02-12T05:55:45;20268.56;;;-147.39;83.84
3524;BME280;1776;53.330;11.498;2023-02-12T05:58:10;20297.00;;;-147.39;83.83
3524;BME280;1776;53.330;11.498;2023-02-12T06:00:35;20250.28;;;-147.39;83.75
3524;BME280;1776;53.330;11.498;2023-02-12T06:03:01;20313.25;;;-147.39;83.56
3524;BME280;1776;53.330;11.498;2023-02-12T06:05:26;20244.19;;;-147.39;83.54
3524;BME280;1776;53.330;11.498;2023-02-12T06:07:51;20410.78;;;-147.39;83.35
3524;BME280;1776;53.330;11.498;2023-02-12T06:10:17;20309.19;;;-147.39;83.48
3524;BME280;1776;53.330;11.498;2023-02-12T06:12:42;20335.59;;;-147.39;83.37
3524;BME280;1776;53.330;11.498;2023-02-12T06:15:08;20329.50;;;-147.39;83.04
3524;BME280;1776;53.330;11.498;2023-02-12T06:17:34;20370.13;;;-147.39;82.96
3524;BME280;1776;53.330;11.498;2023-02-12T06:19:59;20364.03;;;-147.39;83.08
3524;BME280;1776;53.330;11.498;2023-02-12T06:22:26;20392.50;;;-147.39;83.06
3524;BME280;1776;53.330;11.498;2023-02-12T06:24:51;20362.00;;;-147.39;83.02
3524;BME280;1776;53.330;11.498;2023-02-12T06:27:16;20258.41;;;-147.39;82.62
3524;BME280;1776;53.330;11.498;2023-02-12T06:29:41;20370.13;;;-147.39;82.35
3524;BME280;1776;53.330;11.498;2023-02-12T06:32:07;20388.44;;;-147.39;82.43
3524;BME280;1776;53.330;11.498;2023-02-12T06:34:33;20402.66;;;-147.39;82.54
3524;BME280;1776;53.330;11.498;2023-02-12T06:36:58;20372.16;;;-147.39;82.91
3524;BME280;1776;53.330;11.498;2023-02-12T06:39:23;20341.69;;;-147.39;83.25
3524;BME280;1776;53.330;11.498;2023-02-12T06:41:49;20315.28;;;-147.39;83.33
3524;BME280;1776;53.330;11.498;2023-02-12T06:44:14;20307.16;;;-147.39;83.43
3524;BME280;1776;53.330;11.498;2023-02-12T06:46:40;20313.25;;;-147.39;83.37
3524;BME280;1776;53.330;11.498;2023-02-12T06:49:05;20449.38;;;-147.39;83.83
3524;BME280;1776;53.330;11.498;2023-02-12T06:51:30;20331.53;;;-147.39;83.54
3524;BME280;1776;53.330;11.498;2023-02-12T06:53:56;20290.91;;;-147.39;83.71
3524;BME280;1776;53.330;11.498;2023-02-12T06:56:25;20327.47;;;-147.39;83.51
3524;BME280;1776;53.330;11.498;2023-02-12T06:58:53;20288.88;;;-147.39;83.31
3524;BME280;1776;53.330;11.498;2023-02-12T07:01:21;20299.03;;;-147.39;83.40
3524;BME280;1776;53.330;11.498;2023-02-12T07:03:57;20284.81;;;-147.39;83.69
3524;BME280;1776;53.330;11.498;2023-02-12T07:06:24;20321.38;;;-147.39;83.92
3524;BME280;1776;53.330;11.498;2023-02-12T07:08:50;20351.84;;;-147.39;84.08
3524;BME280;1776;53.330;11.498;2023-02-12T07:11:15;20266.53;;;-147.39;83.66
3524;BME280;1776;53.330;11.498;2023-02-12T07:13:41;20329.50;;;-147.39;83.61
3524;BME280;1776;53.330;11.498;2023-02-12T07:16:09;20290.91;;;-147.39;83.75
3524;BME280;1776;53.330;11.498;2023-02-12T07:18:36;20274.66;;;-147.39;83.33
3524;BME280;1776;53.330;11.498;2023-02-12T07:21:02;20370.13;;;-147.39;83.18
3524;BME280;1776;53.330;11.498;2023-02-12T07:23:28;20355.91;;;-147.39;83.17
3524;BME280;1776;53.330;11.498;2023-02-12T07:25:58;20325.44;;;-147.39;82.81
3524;BME280;1776;53.330;11.498;2023-02-12T07:28:24;20376.25;;;-147.39;83.01
3524;BME280;1776;53.330;11.498;2023-02-12T07:30:49;20355.91;;;-147.39;83.02
3524;BME280;1776;53.330;11.498;2023-02-12T07:33:15;20355.91;;;-147.39;83.12
3524;BME280;1776;53.330;11.498;2023-02-12T07:35:40;20077.66;;;-147.39;82.98
3524;BME280;1776;53.330;11.498;2023-02-12T07:38:05;20422.97;;;-147.39;82.67
3524;BME280;1776;53.330;11.498;2023-02-12T07:40:31;20171.06;;;-147.39;82.48
3524;BME280;1776;53.330;11.498;2023-02-12T07:42:56;20388.44;;;-147.39;82.74
3524;BME280;1776;53.330;11.498;2023-02-12T07:45:21;20392.50;;;-147.39;82.89
3524;BME280;1776;53.330;11.498;2023-02-12T07:47:47;20396.56;;;-147.39;82.99
3524;BME280;1776;53.330;11.498;2023-02-12T07:50:12;20394.53;;;-147.39;82.73
3524;BME280;1776;53.330;11.498;2023-02-12T07:52:37;20138.56;;;-147.39;82.84
3524;BME280;1776;53.330;11.498;2023-02-12T07:55:03;20427.03;;;-147.39;82.71
3524;BME280;1776;53.330;11.498;2023-02-12T07:57:28;20439.22;;;-147.39;82.36
3524;BME280;1776;53.330;11.498;2023-02-12T07:59:53;20469.69;;;-147.39;82.06
3524;BME280;1776;53.330;11.498;2023-02-12T08:02:18;20475.78;;;-147.39;81.73
3524;BME280;1776;53.330;11.498;2023-02-12T08:04:44;20475.78;;;-147.39;81.58
3524;BME280;1776;53.330;11.498;2023-02-12T08:07:09;20490.00;;;-147.39;81.24
3524;BME280;1776;53.330;11.498;2023-02-12T08:09:34;20471.72;;;-147.39;81.18
3524;BME280;1776;53.330;11.498;2023-02-12T08:12:00;20518.44;;;-147.39;81.29
3524;BME280;1776;53.330;11.498;2023-02-12T08:14:25;20498.13;;;-147.39;81.41
3524;BME280;1776;53.330;11.498;2023-02-12T08:16:51;20512.34;;;-147.39;81.21
3524;BME280;1776;53.330;11.498;2023-02-12T08:19:17;20542.81;;;-147.39;80.93
3524;BME280;1776;53.330;11.498;2023-02-12T08:21:42;20571.25;;;-147.39;80.67
3524;BME280;1776;53.330;11.498;2023-02-12T08:24:09;20563.13;;;-147.39;80.58
3524;BME280;1776;53.330;11.498;2023-02-12T08:26:36;20577.34;;;-147.39;80.58
3524;BME280;1776;53.330;11.498;2023-02-12T08:29:11;20579.38;;;-147.39;80.32
3524;BME280;1776;53.330;11.498;2023-02-12T08:31:44;20622.03;;;-147.39;80.25
3524;BME280;1776;53.330;11.498;2023-02-12T08:34:19;20615.94;;;-147.39;80.08
3524;BME280;1776;53.330;11.498;2023-02-12T08:36:45;20670.78;;;-147.39;79.83
3524;BME280;1776;53.330;11.498;2023-02-12T08:39:11;20628.13;;;-147.39;79.92
3524;BME280;1776;53.330;11.498;2023-02-12T08:41:37;20626.09;;;-147.39;80.10
3524;BME280;1776;53.330;11.498;2023-02-12T08:44:03;20658.59;;;-147.39;79.96
3524;BME280;1776;53.330;11.498;2023-02-12T08:46:31;20648.44;;;-147.39;80.14
3524;BME280;1776;53.330;11.498;2023-02-12T08:48:58;20666.72;;;-147.39;79.74
3524;BME280;1776;53.330;11.498;2023-02-12T08:51:26;20644.38;;;-147.39;79.83
3524;BME280;1776;53.330;11.498;2023-02-12T08:53:57;20756.13;;;-147.39;79.47
3524;BME280;1776;53.330;11.498;2023-02-12T08:56:23;20703.28;;;-147.39;79.29
3524;BME280;1776;53.330;11.498;2023-02-12T08:58:50;20752.06;;;-147.39;79.35
3524;BME280;1776;53.330;11.498;2023-02-12T09:01:19;20741.88;;;-147.39;79.18
3524;BME280;1776;53.330;11.498;2023-02-12T09:03:46;20802.84;;;-147.39;78.87
3524;BME280;1776;53.330;11.498;2023-02-12T09:06:12;20804.88;;;-147.39;78.34
3524;BME280;1776;53.330;11.498;2023-02-12T09:08:38;20802.84;;;-147.39;78.49
3524;BME280;1776;53.330;11.498;2023-02-12T09:11:05;20815.03;;;-147.39;78.28
3524;BME280;1776;53.330;11.498;2023-02-12T09:13:31;20880.03;;;-147.39;78.07
3524;BME280;1776;53.330;11.498;2023-02-12T09:16:00;20851.59;;;-147.39;78.12
3524;BME280;1776;53.330;11.498;2023-02-12T09:18:26;20246.22;;;-147.39;78.07
3524;BME280;1776;53.330;11.498;2023-02-12T09:20:51;20906.44;;;-147.39;78.05
3524;BME280;1776;53.330;11.498;2023-02-12T09:23:16;20884.09;;;-147.39;77.48
3524;BME280;1776;53.330;11.498;2023-02-12T09:25:43;20912.53;;;-147.39;77.59
3524;BME280;1776;53.330;11.498;2023-02-12T09:28:10;20991.78;;;-147.39;77.09
3524;BME280;1776;53.330;11.498;2023-02-12T09:30:37;20932.84;;;-147.39;76.74
3524;BME280;1776;53.330;11.498;2023-02-12T09:33:04;20963.34;;;-147.39;76.78
3524;BME280;1776;53.330;11.498;2023-02-12T09:35:29;20965.38;;;-147.39;76.73
3524;BME280;1776;53.330;11.498;2023-02-12T09:37:55;21018.19;;;-147.39;77.03
3524;BME280;1776;53.330;11.498;2023-02-12T09:40:23;21056.78;;;-147.39;75.98
3524;BME280;1776;53.330;11.498;2023-02-12T09:45:29;21125.88;;;-147.39;76.25
3524;BME280;1776;53.330;11.498;2023-02-12T09:50:51;21064.91;;;-147.39;76.58
3524;BME280;1776;53.330;11.498;2023-02-12T09:53:24;21081.16;;;-147.39;77.44
3524;BME280;1776;53.330;11.498;2023-02-12T09:55:51;21008.03;;;-147.39;77.25
3524;BME280;1776;53.330;11.498;2023-02-12T09:58:28;20971.47;;;-147.39;77.79
3524;BME280;1776;53.330;11.498;2023-02-12T10:00:56;20957.25;;;-147.39;77.87
3524;BME280;1776;53.330;11.498;2023-02-12T10:03:22;20953.19;;;-147.39;77.41
3524;BME280;1776;53.330;11.498;2023-02-12T10:05:56;21034.44;;;-147.39;77.44
3524;BME280;1776;53.330;11.498;2023-02-12T10:08:31;20999.91;;;-147.39;77.63
3524;BME280;1776;53.330;11.498;2023-02-12T10:14:05;20981.63;;;-147.39;77.95
3524;BME280;1776;53.330;11.498;2023-02-12T10:22:25;21048.66;;;-147.39;76.95
3524;BME280;1776;53.330;11.498;2023-02-12T10:28:00;21091.31;;;-147.39;76.71
3524;BME280;1776;53.330;11.498;2023-02-12T10:30:32;21113.69;;;-147.39;76.85
3524;BME280;1776;53.330;11.498;2023-02-12T10:33:16;21107.59;;;-147.39;77.20
3524;BME280;1776;53.330;11.498;2023-02-12T10:35:54;21091.31;;;-147.39;77.29
3524;BME280;1776;53.330;11.498;2023-02-12T10:38:34;21121.81;;;-147.39;76.68
3524;BME280;1776;53.330;11.498;2023-02-12T10:41:02;21062.88;;;-147.39;77.15
3524;BME280;1776;53.330;11.498;2023-02-12T10:43:28;21129.94;;;-147.39;77.46
3524;BME280;1776;53.330;11.498;2023-02-12T10:45:54;21093.34;;;-147.39;77.13
3524;BME280;1776;53.330;11.498;2023-02-12T10:48:34;21129.94;;;-147.39;77.12
3524;BME280;1776;53.330;11.498;2023-02-12T10:51:15;21066.94;;;-147.39;77.14
3524;BME280;1776;53.330;11.498;2023-02-12T10:53:45;21095.41;;;-147.39;77.04
3524;BME280;1776;53.330;11.498;2023-02-12T10:58:59;21030.38;;;-147.39;78.15
3524;BME280;1776;53.330;11.498;2023-02-12T11:01:32;21018.19;;;-147.39;77.92
3524;BME280;1776;53.330;11.498;2023-02-12T11:03:59;21024.28;;;-147.39;77.71
3524;BME280;1776;53.330;11.498;2023-02-12T11:06:30;21105.56;;;-147.39;77.87
3524;BME280;1776;53.330;11.498;2023-02-12T11:08:57;21154.31;;;-147.39;77.50
3524;BME280;1776;53.330;11.498;2023-02-12T11:11:27;21121.81;;;-147.39;77.40
3524;BME280;1776;53.330;11.498;2023-02-12T11:14:02;21154.31;;;-147.39;76.86
3524;BME280;1776;53.330;11.498;2023-02-12T11:16:33;21097.44;;;-147.39;77.04
3524;BME280;1776;53.330;11.498;2023-02-12T11:19:20;21071.00;;;-147.39;77.36
3524;BME280;1776;53.330;11.498;2023-02-12T11:21:46;21099.47;;;-147.39;77.30
3524;BME280;1776;53.330;11.498;2023-02-12T11:26:46;21105.56;;;-147.39;77.10
3524;BME280;1776;53.330;11.498;2023-02-12T11:29:21;21142.13;;;-147.39;76.82
3524;BME280;1776;53.330;11.498;2023-02-12T11:32:08;21190.88;;;-147.39;76.50
3524;BME280;1776;53.330;11.498;2023-02-12T11:34:39;21170.56;;;-147.39;76.50
3524;BME280;1776;53.330;11.498;2023-02-12T11:37:13;21306.69;;;-147.39;76.27
3524;BME280;1776;53.330;11.498;2023-02-12T11:39:45;21211.19;;;-147.39;76.31
3524;BME280;1776;53.330;11.498;2023-02-12T11:42:19;21184.78;;;-147.39;76.29
3524;BME280;1776;53.330;11.498;2023-02-12T11:44:50;21192.91;;;-147.39;76.21
3524;BME280;1776;53.330;11.498;2023-02-12T11:47:19;21194.94;;;-147.39;76.05
3524;BME280;1776;53.330;11.498;2023-02-12T11:49:55;21272.16;;;-147.39;75.55
3524;BME280;1776;53.330;11.498;2023-02-12T11:52:28;21233.56;;;-147.39;75.76
3524;BME280;1776;53.330;11.498;2023-02-12T11:54:57;21186.81;;;-147.39;76.48
3524;BME280;1776;53.330;11.498;2023-02-12T12:00:05;21211.19;;;-147.39;75.89
3524;BME280;1776;53.330;11.498;2023-02-12T12:02:38;21227.47;;;-147.39;76.31
3524;BME280;1776;53.330;11.498;2023-02-12T12:05:12;21213.22;;;-147.39;76.13
3524;BME280;1776;53.330;11.498;2023-02-12T12:07:43;21223.38;;;-147.39;76.19
3524;BME280;1776;53.330;11.498;2023-02-12T12:12:55;21188.84;;;-147.39;76.65
3524;BME280;1776;53.330;11.498;2023-02-12T12:15:28;21327.00;;;-147.39;76.15
3524;BME280;1776;53.330;11.498;2023-02-12T12:19:21;21284.34;;;-147.39;75.73
3524;BME280;1776;53.330;11.498;2023-02-12T12:30:39;21355.47;;;-147.39;75.03
3524;BME280;1776;53.330;11.498;2023-02-12T12:33:23;21446.91;;;-147.39;75.06
3524;BME280;1776;53.330;11.498;2023-02-12T12:38:45;21365.63;;;-147.39;75.20
3524;BME280;1776;53.330;11.498;2023-02-12T12:44:10;21355.47;;;-147.39;75.37
3524;BME280;1776;53.330;11.498;2023-02-12T12:47:14;21337.16;;;-147.39;75.41
3524;BME280;1776;53.330;11.498;2023-02-12T12:49:47;21369.69;;;-147.39;76.04
3524;BME280;1776;53.330;11.498;2023-02-12T12:55:10;21278.25;;;-147.39;76.79
3524;BME280;1776;53.330;11.498;2023-02-12T13:00:26;21266.06;;;-147.39;76.34
3524;BME280;1776;53.330;11.498;2023-02-12T13:03:32;21292.47;;;-147.39;76.23
3524;BME280;1776;53.330;11.498;2023-02-12T13:06:31;21280.28;;;-147.39;76.21
3524;BME280;1776;53.330;11.498;2023-02-12T13:09:36;21237.63;;;-147.39;76.80
3524;BME280;1776;53.330;11.498;2023-02-12T13:14:44;21337.16;;;-147.39;77.13
3524;BME280;1776;53.330;11.498;2023-02-12T13:17:18;20626.09;;;-147.39;77.38
3524;BME280;1776;53.330;11.498;2023-02-12T13:19:55;21339.19;;;-147.39;77.05
3524;BME280;1776;53.330;11.498;2023-02-12T13:22:38;21296.53;;;-147.39;76.61
3524;BME280;1776;53.330;11.498;2023-02-12T13:25:48;21292.47;;;-147.39;76.46
3524;BME280;1776;53.330;11.498;2023-02-12T13:28:12;21255.91;;;-147.39;76.83
3524;BME280;1776;53.330;11.498;2023-02-12T13:30:45;21381.88;;;-147.39;76.29
3524;BME280;1776;53.330;11.498;2023-02-12T13:35:45;21306.69;;;-147.39;76.04
3524;BME280;1776;53.330;11.498;2023-02-12T13:38:20;21333.09;;;-147.39;76.13
3524;BME280;1776;53.330;11.498;2023-02-12T13:40:47;21422.50;;;-147.39;75.81
3524;BME280;1776;53.330;11.498;2023-02-12T13:45:54;21294.50;;;-147.39;76.14
3524;BME280;1776;53.330;11.498;2023-02-12T13:48:32;21290.44;;;-147.39;76.84
3524;BME280;1776;53.330;11.498;2023-02-12T14:01:58;21205.09;;;-147.39;78.23
3524;BME280;1776;53.330;11.498;2023-02-12T14:07:06;21201.03;;;-147.39;77.59
3524;BME280;1776;53.330;11.498;2023-02-12T14:12:33;21296.53;;;-147.39;77.39
3524;BME280;1776;53.330;11.498;2023-02-12T14:20:32;21237.63;;;-147.39;77.09
3524;BME280;1776;53.330;11.498;2023-02-12T14:26:04;21274.19;;;-147.39;76.86
3524;BME280;1776;53.330;11.498;2023-02-12T14:28:58;21264.03;;;-147.39;76.77
3524;BME280;1776;53.330;11.498;2023-02-12T14:31:32;21251.84;;;-147.39;77.22
3524;BME280;1776;53.330;11.498;2023-02-12T14:39:03;21290.44;;;-147.39;78.07
3524;BME280;1776;53.330;11.498;2023-02-12T14:41:34;21221.34;;;-147.39;78.20
3524;BME280;1776;53.330;11.498;2023-02-12T14:46:54;21184.78;;;-147.39;78.62
3524;BME280;1776;53.330;11.498;2023-02-12T14:49:29;20303.09;;;-147.39;78.88
3524;BME280;1776;53.330;11.498;2023-02-12T14:52:14;21255.91;;;-147.39;78.87
3524;BME280;1776;53.330;11.498;2023-02-12T14:54:43;21154.31;;;-147.39;78.89